sensor_id;sensor_type;location;lat;lon;timestamp;pressure;altitude;pressure_sealevel;temperature;humidity
17764;BME280;22245;52.832;13.816;2022-07-18T00:01:13;102416.13;;;15.72;66.67
17764;BME280;22245;52.832;13.816;2022-07-18T00:04:35;102411.28;;;15.66;66.67
17764;BME280;22245;52.832;13.816;2022-07-18T00:07:56;102403.56;;;15.61;67.02
17764;BME280;22245;52.832;13.816;2022-07-18T00:11:18;102409.19;;;15.58;66.80
17764;BME280;22245;52.832;13.816;2022-07-18T00:14:41;102398.84;;;15.54;67.72
17764;BME280;22245;52.832;13.816;2022-07-18T00:18:03;102397.25;;;15.51;67.78
17764;BME280;22245;52.832;13.816;2022-07-18T00:21:25;102407.25;;;15.49;67.46
17764;BME280;22245;52.832;13.816;2022-07-18T00:24:47;102403.94;;;15.45;67.90
17764;BME280;22245;52.832;13.816;2022-07-18T00:28:09;102400.66;;;15.42;68.79
17764;BME280;22245;52.832;13.816;2022-07-18T00:31:34;102393.69;;;15.39;68.79
17764;BME280;22245;52.832;13.816;2022-07-18T00:34:56;102399.22;;;15.38;68.90
17764;BME280;22245;52.832;13.816;2022-07-18T00:38:18;102408.97;;;15.39;68.64
17764;BME280;22245;52.832;13.816;2022-07-18T00:41:39;102417.03;;;15.39;68.57
17764;BME280;22245;52.832;13.816;2022-07-18T00:45:06;102421.53;;;15.38;68.36
17764;BME280;22245;52.832;13.816;2022-07-18T00:48:29;102419.09;;;15.35;68.57
17764;BME280;22245;52.832;13.816;2022-07-18T00:51:52;102424.44;;;15.35;67.82
17764;BME280;22245;52.832;13.816;2022-07-18T00:55:14;102423.72;;;15.33;68.12
17764;BME280;22245;52.832;13.816;2022-07-18T00:58:36;102428.34;;;15.31;67.85
17764;BME280;22245;52.832;13.816;2022-07-18T01:01:58;102418.47;;;15.31;67.44
17764;BME280;22245;52.832;13.816;2022-07-18T01:05:20;102423.97;;;15.30;67.45
17764;BME280;22245;52.832;13.816;2022-07-18T01:08:42;102425.91;;;15.28;67.24
17764;BME280;22245;52.832;13.816;2022-07-18T01:12:05;102431.53;;;15.25;67.17
17764;BME280;22245;52.832;13.816;2022-07-18T01:15:27;102427.63;;;15.17;67.27
17764;BME280;22245;52.832;13.816;2022-07-18T01:18:50;102426.03;;;15.15;67.36
17764;BME280;22245;52.832;13.816;2022-07-18T01:22:16;102428.81;;;15.13;67.77
17764;BME280;22245;52.832;13.816;2022-07-18T01:25:38;102422.72;;;15.11;68.44
17764;BME280;22245;52.832;13.816;2022-07-18T01:28:59;102421.13;;;15.09;68.14
17764;BME280;22245;52.832;13.816;2022-07-18T01:32:22;102422.84;;;15.10;68.55
17764;BME280;22245;52.832;13.816;2022-07-18T01:35:44;102418.31;;;15.10;68.81
17764;BME280;22245;52.832;13.816;2022-07-18T01:39:07;102415.53;;;15.12;68.07
17764;BME280;22245;52.832;13.816;2022-07-18T01:42:30;102411.00;;;15.12;68.58
17764;BME280;22245;52.832;13.816;2022-07-18T01:45:52;102417.22;;;15.13;69.10
17764;BME280;22245;52.832;13.816;2022-07-18T01:49:14;102407.34;;;15.13;69.08
17764;BME280;22245;52.832;13.816;2022-07-18T01:52:36;102407.59;;;15.10;69.47
17764;BME280;22245;52.832;13.816;2022-07-18T01:55:59;102406.13;;;15.06;69.72
17764;BME280;22245;52.832;13.816;2022-07-18T01:59:21;102399.19;;;15.03;69.10
17764;BME280;22245;52.832;13.816;2022-07-18T02:02:43;102394.91;;;15.01;69.55
17764;BME280;22245;52.832;13.816;2022-07-18T02:06:05;102404.06;;;14.98;70.13
17764;BME280;22245;52.832;13.816;2022-07-18T02:09:27;102396.47;;;14.92;69.70
17764;BME280;22245;52.832;13.816;2022-07-18T02:12:50;102397.66;;;14.88;70.40
17764;BME280;22245;52.832;13.816;2022-07-18T02:16:11;102406.09;;;14.83;70.01
17764;BME280;22245;52.832;13.816;2022-07-18T02:19:33;102406.34;;;14.80;69.83
17764;BME280;22245;52.832;13.816;2022-07-18T02:22:55;102399.38;;;14.78;70.12
17764;BME280;22245;52.832;13.816;2022-07-18T02:26:17;102391.66;;;14.73;70.16
17764;BME280;22245;52.832;13.816;2022-07-18T02:29:41;102385.75;;;14.68;70.83
17764;BME280;22245;52.832;13.816;2022-07-18T02:33:02;102387.94;;;14.62;70.35
17764;BME280;22245;52.832;13.816;2022-07-18T02:36:24;102384.03;;;14.55;70.40
17764;BME280;22245;52.832;13.816;2022-07-18T02:39:46;102396.19;;;14.48;70.38
17764;BME280;22245;52.832;13.816;2022-07-18T02:43:07;102398.47;;;14.41;70.79
17764;BME280;22245;52.832;13.816;2022-07-18T02:46:31;102388.22;;;14.35;71.20
17764;BME280;22245;52.832;13.816;2022-07-18T02:49:53;102391.38;;;14.29;71.12
17764;BME280;22245;52.832;13.816;2022-07-18T02:53:15;102389.25;;;14.21;71.56
17764;BME280;22245;52.832;13.816;2022-07-18T02:56:39;102394.22;;;14.14;72.14
17764;BME280;22245;52.832;13.816;2022-07-18T03:00:02;102397.25;;;14.10;72.33
17764;BME280;22245;52.832;13.816;2022-07-18T03:03:25;102401.22;;;14.04;71.77
17764;BME280;22245;52.832;13.816;2022-07-18T03:06:48;102399.00;;;13.98;72.14
17764;BME280;22245;52.832;13.816;2022-07-18T03:10:10;102398.59;;;13.91;72.56
17764;BME280;22245;52.832;13.816;2022-07-18T03:13:32;102392.72;;;13.86;72.54
17764;BME280;22245;52.832;13.816;2022-07-18T03:16:54;102390.34;;;13.81;72.42
17764;BME280;22245;52.832;13.816;2022-07-18T03:20:17;102391.56;;;13.77;72.39
17764;BME280;22245;52.832;13.816;2022-07-18T03:23:39;102391.03;;;13.72;72.84
17764;BME280;22245;52.832;13.816;2022-07-18T03:27:00;102389.69;;;13.66;73.47
17764;BME280;22245;52.832;13.816;2022-07-18T03:30:22;102390.97;;;13.60;73.39
17764;BME280;22245;52.832;13.816;2022-07-18T03:33:44;102390.31;;;13.57;73.70
17764;BME280;22245;52.832;13.816;2022-07-18T03:37:08;102388.59;;;13.56;74.05
17764;BME280;22245;52.832;13.816;2022-07-18T03:40:29;102401.25;;;13.54;74.13
17764;BME280;22245;52.832;13.816;2022-07-18T03:43:51;102395.91;;;13.54;74.30
17764;BME280;22245;52.832;13.816;2022-07-18T03:47:14;102388.81;;;13.53;74.52
17764;BME280;22245;52.832;13.816;2022-07-18T03:50:36;102392.38;;;13.53;74.69
17764;BME280;22245;52.832;13.816;2022-07-18T03:53:59;102380.72;;;13.54;74.94
17764;BME280;22245;52.832;13.816;2022-07-18T03:57:20;102387.78;;;13.55;74.66
17764;BME280;22245;52.832;13.816;2022-07-18T04:00:42;102386.91;;;13.55;74.61
17764;BME280;22245;52.832;13.816;2022-07-18T04:04:04;102391.28;;;13.56;74.89
17764;BME280;22245;52.832;13.816;2022-07-18T04:07:26;102392.03;;;13.58;74.10
17764;BME280;22245;52.832;13.816;2022-07-18T04:10:49;102393.88;;;13.57;74.71
17764;BME280;22245;52.832;13.816;2022-07-18T04:14:11;102385.84;;;13.57;74.28
17764;BME280;22245;52.832;13.816;2022-07-18T04:17:33;102388.59;;;13.56;74.34
17764;BME280;22245;52.832;13.816;2022-07-18T04:20:55;102390.44;;;13.55;74.12
17764;BME280;22245;52.832;13.816;2022-07-18T04:24:17;102402.97;;;13.55;74.54
17764;BME280;22245;52.832;13.816;2022-07-18T04:27:40;102404.88;;;13.53;74.42
17764;BME280;22245;52.832;13.816;2022-07-18T04:31:02;102408.44;;;13.53;74.49
17764;BME280;22245;52.832;13.816;2022-07-18T04:34:24;102398.06;;;13.49;74.17
17764;BME280;22245;52.832;13.816;2022-07-18T04:37:46;102396.25;;;13.49;74.16
17764;BME280;22245;52.832;13.816;2022-07-18T04:41:08;102396.13;;;13.51;73.97
17764;BME280;22245;52.832;13.816;2022-07-18T04:44:31;102392.47;;;13.52;74.12
17764;BME280;22245;52.832;13.816;2022-07-18T04:47:53;102383.69;;;13.50;74.45
17764;BME280;22245;52.832;13.816;2022-07-18T04:51:16;102384.66;;;13.49;74.95
17764;BME280;22245;52.832;13.816;2022-07-18T04:54:38;102383.81;;;13.48;74.95
17764;BME280;22245;52.832;13.816;2022-07-18T04:58:00;102379.31;;;13.49;74.60
17764;BME280;22245;52.832;13.816;2022-07-18T05:01:23;102378.34;;;13.50;74.82
17764;BME280;22245;52.832;13.816;2022-07-18T05:04:44;102379.31;;;13.49;74.74
17764;BME280;22245;52.832;13.816;2022-07-18T05:08:06;102380.81;;;13.53;74.43
17764;BME280;22245;52.832;13.816;2022-07-18T05:11:28;102383.25;;;13.56;74.21
17764;BME280;22245;52.832;13.816;2022-07-18T05:14:50;102374.91;;;13.60;73.83
17764;BME280;22245;52.832;13.816;2022-07-18T05:18:23;102386.88;;;13.68;73.89
17764;BME280;22245;52.832;13.816;2022-07-18T05:21:45;102379.34;;;13.73;73.28
17764;BME280;22245;52.832;13.816;2022-07-18T05:25:08;102379.56;;;13.83;73.16
17764;BME280;22245;52.832;13.816;2022-07-18T05:28:31;102361.81;;;13.93;73.63
17764;BME280;22245;52.832;13.816;2022-07-18T05:31:53;102358.50;;;14.02;73.27
17764;BME280;22245;52.832;13.816;2022-07-18T05:35:16;102364.00;;;14.12;73.58
17764;BME280;22245;52.832;13.816;2022-07-18T05:38:38;102374.66;;;14.25;73.55
17764;BME280;22245;52.832;13.816;2022-07-18T05:42:00;102371.28;;;14.35;71.66
17764;BME280;22245;52.832;13.816;2022-07-18T05:45:22;102364.50;;;14.42;71.51
17764;BME280;22245;52.832;13.816;2022-07-18T05:48:44;102368.41;;;14.49;71.79
17764;BME280;22245;52.832;13.816;2022-07-18T05:52:08;102360.53;;;14.59;71.37
17764;BME280;22245;52.832;13.816;2022-07-18T05:55:30;102370.66;;;14.67;70.74
17764;BME280;22245;52.832;13.816;2022-07-18T05:58:52;102371.47;;;14.80;70.65
17764;BME280;22245;52.832;13.816;2022-07-18T06:02:14;102368.66;;;14.93;70.18
17764;BME280;22245;52.832;13.816;2022-07-18T06:05:36;102367.72;;;15.05;69.37
17764;BME280;22245;52.832;13.816;2022-07-18T06:08:59;102361.38;;;15.18;68.38
17764;BME280;22245;52.832;13.816;2022-07-18T06:12:22;102364.28;;;15.26;68.67
17764;BME280;22245;52.832;13.816;2022-07-18T06:15:44;102366.38;;;15.34;68.67
17764;BME280;22245;52.832;13.816;2022-07-18T06:19:06;102367.34;;;15.44;68.28
17764;BME280;22245;52.832;13.816;2022-07-18T06:22:28;102363.53;;;15.58;68.07
17764;BME280;22245;52.832;13.816;2022-07-18T06:25:51;102360.00;;;15.69;69.01
17764;BME280;22245;52.832;13.816;2022-07-18T06:29:13;102364.09;;;15.85;67.76
17764;BME280;22245;52.832;13.816;2022-07-18T06:32:35;102366.28;;;16.02;67.50
17764;BME280;22245;52.832;13.816;2022-07-18T06:35:57;102359.88;;;16.15;67.71
17764;BME280;22245;52.832;13.816;2022-07-18T06:39:18;102361.69;;;16.26;66.05
17764;BME280;22245;52.832;13.816;2022-07-18T06:42:42;102356.84;;;16.41;64.84
17764;BME280;22245;52.832;13.816;2022-07-18T06:46:03;102349.31;;;16.56;64.67
17764;BME280;22245;52.832;13.816;2022-07-18T06:49:26;102353.50;;;16.70;64.21
17764;BME280;22245;52.832;13.816;2022-07-18T06:52:48;102353.28;;;16.83;62.11
17764;BME280;22245;52.832;13.816;2022-07-18T06:56:09;102356.38;;;16.99;61.57
17764;BME280;22245;52.832;13.816;2022-07-18T06:59:33;102352.75;;;17.10;58.04
17764;BME280;22245;52.832;13.816;2022-07-18T07:02:54;102358.38;;;17.28;58.68
17764;BME280;22245;52.832;13.816;2022-07-18T07:06:16;102362.97;;;17.47;58.52
17764;BME280;22245;52.832;13.816;2022-07-18T07:09:38;102361.69;;;17.61;59.30
17764;BME280;22245;52.832;13.816;2022-07-18T07:13:00;102358.22;;;17.81;59.09
17764;BME280;22245;52.832;13.816;2022-07-18T07:16:24;102350.00;;;17.92;59.49
17764;BME280;22245;52.832;13.816;2022-07-18T07:19:46;102348.91;;;18.04;59.58
17764;BME280;22245;52.832;13.816;2022-07-18T07:23:07;102346.22;;;18.24;58.72
17764;BME280;22245;52.832;13.816;2022-07-18T07:26:29;102348.88;;;18.44;57.79
17764;BME280;22245;52.832;13.816;2022-07-18T07:29:51;102349.59;;;18.56;56.08
17764;BME280;22245;52.832;13.816;2022-07-18T07:33:14;102345.41;;;18.71;56.62
17764;BME280;22245;52.832;13.816;2022-07-18T07:36:36;102340.88;;;18.82;55.64
17764;BME280;22245;52.832;13.816;2022-07-18T07:39:58;102332.59;;;18.93;54.66
17764;BME280;22245;52.832;13.816;2022-07-18T07:43:20;102331.59;;;19.04;54.31
17764;BME280;22245;52.832;13.816;2022-07-18T07:46:41;102319.59;;;19.16;54.38
17764;BME280;22245;52.832;13.816;2022-07-18T07:50:07;102322.63;;;19.31;53.64
17764;BME280;22245;52.832;13.816;2022-07-18T07:53:29;102318.88;;;19.42;53.05
17764;BME280;22245;52.832;13.816;2022-07-18T07:56:51;102326.47;;;19.57;53.46
17764;BME280;22245;52.832;13.816;2022-07-18T08:00:13;102329.50;;;19.72;52.88
17764;BME280;22245;52.832;13.816;2022-07-18T08:03:35;102338.25;;;19.84;51.89
17764;BME280;22245;52.832;13.816;2022-07-18T08:06:59;102330.41;;;19.90;51.92
17764;BME280;22245;52.832;13.816;2022-07-18T08:10:21;102329.31;;;20.01;49.61
17764;BME280;22245;52.832;13.816;2022-07-18T08:13:42;102329.47;;;20.18;49.12
17764;BME280;22245;52.832;13.816;2022-07-18T08:17:04;102329.53;;;20.26;48.46
17764;BME280;22245;52.832;13.816;2022-07-18T08:20:26;102334.38;;;20.41;47.47
17764;BME280;22245;52.832;13.816;2022-07-18T08:23:50;102328.16;;;20.48;47.14
17764;BME280;22245;52.832;13.816;2022-07-18T08:27:12;102330.22;;;20.54;46.31
17764;BME280;22245;52.832;13.816;2022-07-18T08:30:34;102321.16;;;20.64;47.36
17764;BME280;22245;52.832;13.816;2022-07-18T08:33:56;102311.41;;;20.71;47.55
17764;BME280;22245;52.832;13.816;2022-07-18T08:37:18;102313.88;;;20.82;46.74
17764;BME280;22245;52.832;13.816;2022-07-18T08:40:44;102324.91;;;20.89;47.17
17764;BME280;22245;52.832;13.816;2022-07-18T08:44:08;102318.53;;;20.99;46.71
17764;BME280;22245;52.832;13.816;2022-07-18T08:47:30;102315.16;;;21.05;46.84
17764;BME280;22245;52.832;13.816;2022-07-18T08:50:53;102318.09;;;21.20;46.18
17764;BME280;22245;52.832;13.816;2022-07-18T08:54:15;102324.75;;;21.25;46.04
17764;BME280;22245;52.832;13.816;2022-07-18T08:57:43;102316.78;;;21.32;45.41
17764;BME280;22245;52.832;13.816;2022-07-18T09:01:05;102315.28;;;21.38;45.35
17764;BME280;22245;52.832;13.816;2022-07-18T09:04:34;102309.56;;;21.49;43.69
17764;BME280;22245;52.832;13.816;2022-07-18T09:08:08;102301.63;;;21.56;42.98
17764;BME280;22245;52.832;13.816;2022-07-18T09:11:31;102299.09;;;21.63;43.56
17764;BME280;22245;52.832;13.816;2022-07-18T09:15:14;102296.09;;;21.74;43.18
17764;BME280;22245;52.832;13.816;2022-07-18T09:18:38;102296.44;;;21.88;40.48
17764;BME280;22245;52.832;13.816;2022-07-18T09:22:15;102304.59;;;22.04;39.30
17764;BME280;22245;52.832;13.816;2022-07-18T09:25:37;102301.19;;;22.10;38.53
17764;BME280;22245;52.832;13.816;2022-07-18T09:28:59;102297.94;;;22.15;40.66
17764;BME280;22245;52.832;13.816;2022-07-18T09:32:44;102298.78;;;22.24;40.47
17764;BME280;22245;52.832;13.816;2022-07-18T09:36:06;102302.72;;;22.30;40.58
17764;BME280;22245;52.832;13.816;2022-07-18T09:39:28;102303.38;;;22.32;39.83
17764;BME280;22245;52.832;13.816;2022-07-18T09:42:50;102301.69;;;22.31;40.03
17764;BME280;22245;52.832;13.816;2022-07-18T09:46:12;102304.06;;;22.34;40.74
17764;BME280;22245;52.832;13.816;2022-07-18T09:49:40;102301.16;;;22.44;41.55
17764;BME280;22245;52.832;13.816;2022-07-18T09:53:12;102300.66;;;22.57;40.93
17764;BME280;22245;52.832;13.816;2022-07-18T09:56:52;102297.94;;;22.65;41.44
17764;BME280;22245;52.832;13.816;2022-07-18T10:00:14;102298.56;;;22.75;39.87
17764;BME280;22245;52.832;13.816;2022-07-18T10:03:36;102301.47;;;22.74;39.82
17764;BME280;22245;52.832;13.816;2022-07-18T10:07:01;102299.44;;;22.76;40.74
17764;BME280;22245;52.832;13.816;2022-07-18T10:10:24;102305.84;;;22.83;42.21
17764;BME280;22245;52.832;13.816;2022-07-18T10:13:46;102301.75;;;22.87;40.96
17764;BME280;22245;52.832;13.816;2022-07-18T10:17:10;102299.38;;;22.92;41.09
17764;BME280;22245;52.832;13.816;2022-07-18T10:20:34;102299.88;;;22.96;39.85
17764;BME280;22245;52.832;13.816;2022-07-18T10:24:00;102293.53;;;23.04;40.20
17764;BME280;22245;52.832;13.816;2022-07-18T10:27:22;102304.03;;;23.15;41.54
17764;BME280;22245;52.832;13.816;2022-07-18T10:30:46;102301.28;;;23.23;41.10
17764;BME280;22245;52.832;13.816;2022-07-18T10:34:10;102293.97;;;23.32;39.18
17764;BME280;22245;52.832;13.816;2022-07-18T10:37:33;102294.75;;;23.41;39.22
17764;BME280;22245;52.832;13.816;2022-07-18T10:41:05;102288.25;;;23.50;38.97
17764;BME280;22245;52.832;13.816;2022-07-18T10:44:34;102297.53;;;23.56;38.30
17764;BME280;22245;52.832;13.816;2022-07-18T10:47:57;102294.66;;;23.58;38.97
17764;BME280;22245;52.832;13.816;2022-07-18T10:51:29;102291.94;;;23.58;38.58
17764;BME280;22245;52.832;13.816;2022-07-18T10:55:26;102290.72;;;23.60;39.40
17764;BME280;22245;52.832;13.816;2022-07-18T10:58:51;102297.84;;;23.61;38.68
17764;BME280;22245;52.832;13.816;2022-07-18T11:02:12;102287.47;;;23.65;40.02
17764;BME280;22245;52.832;13.816;2022-07-18T11:05:35;102289.66;;;23.69;39.18
17764;BME280;22245;52.832;13.816;2022-07-18T11:13:22;102276.81;;;23.78;39.34
17764;BME280;22245;52.832;13.816;2022-07-18T11:17:06;102280.69;;;23.84;39.12
17764;BME280;22245;52.832;13.816;2022-07-18T11:20:34;102277.06;;;23.92;39.41
17764;BME280;22245;52.832;13.816;2022-07-18T11:24:00;102265.44;;;23.98;39.49
17764;BME280;22245;52.832;13.816;2022-07-18T11:27:22;102269.50;;;24.02;38.55
17764;BME280;22245;52.832;13.816;2022-07-18T11:30:44;102258.25;;;24.05;38.59
17764;BME280;22245;52.832;13.816;2022-07-18T11:34:08;102253.47;;;24.07;38.35
17764;BME280;22245;52.832;13.816;2022-07-18T11:37:29;102256.47;;;24.12;38.46
17764;BME280;22245;52.832;13.816;2022-07-18T11:40:51;102253.00;;;24.19;39.45
17764;BME280;22245;52.832;13.816;2022-07-18T11:44:17;102256.22;;;24.22;38.43
17764;BME280;22245;52.832;13.816;2022-07-18T11:47:46;102237.47;;;24.27;38.97
17764;BME280;22245;52.832;13.816;2022-07-18T11:51:10;102240.28;;;24.34;39.36
17764;BME280;22245;52.832;13.816;2022-07-18T11:54:33;102232.41;;;24.39;39.18
17764;BME280;22245;52.832;13.816;2022-07-18T11:57:54;102229.47;;;24.41;38.43
17764;BME280;22245;52.832;13.816;2022-07-18T12:01:17;102228.75;;;24.32;37.75
17764;BME280;22245;52.832;13.816;2022-07-18T12:04:39;102229.78;;;24.31;38.69
17764;BME280;22245;52.832;13.816;2022-07-18T12:08:31;102217.91;;;24.39;38.44
17764;BME280;22245;52.832;13.816;2022-07-18T12:12:07;102212.19;;;24.49;38.86
17764;BME280;22245;52.832;13.816;2022-07-18T12:15:41;102212.75;;;24.59;38.07
17764;BME280;22245;52.832;13.816;2022-07-18T12:19:06;102208.91;;;24.68;38.34
17764;BME280;22245;52.832;13.816;2022-07-18T12:23:05;102211.19;;;24.80;38.42
17764;BME280;22245;52.832;13.816;2022-07-18T12:26:31;102202.50;;;24.91;38.77
17764;BME280;22245;52.832;13.816;2022-07-18T12:30:09;102197.97;;;24.98;37.77
17764;BME280;22245;52.832;13.816;2022-07-18T12:33:31;102200.13;;;25.03;37.67
17764;BME280;22245;52.832;13.816;2022-07-18T12:36:55;102194.09;;;25.08;36.69
17764;BME280;22245;52.832;13.816;2022-07-18T12:40:21;102183.25;;;25.14;37.77
17764;BME280;22245;52.832;13.816;2022-07-18T12:43:47;102176.84;;;25.22;37.40
17764;BME280;22245;52.832;13.816;2022-07-18T12:47:09;102181.34;;;25.30;37.91
17764;BME280;22245;52.832;13.816;2022-07-18T12:50:31;102180.72;;;25.35;39.02
17764;BME280;22245;52.832;13.816;2022-07-18T12:53:53;102173.47;;;25.42;37.92
17764;BME280;22245;52.832;13.816;2022-07-18T12:57:14;102177.31;;;25.48;38.14
17764;BME280;22245;52.832;13.816;2022-07-18T13:00:38;102180.28;;;25.53;37.94
17764;BME280;22245;52.832;13.816;2022-07-18T13:04:00;102173.88;;;25.61;37.87
17764;BME280;22245;52.832;13.816;2022-07-18T13:07:21;102171.59;;;25.64;38.12
17764;BME280;22245;52.832;13.816;2022-07-18T13:10:43;102176.25;;;25.70;37.65
17764;BME280;22245;52.832;13.816;2022-07-18T13:14:05;102177.38;;;25.76;37.11
17764;BME280;22245;52.832;13.816;2022-07-18T13:17:28;102169.44;;;25.81;36.22
17764;BME280;22245;52.832;13.816;2022-07-18T13:20:50;102170.66;;;25.79;36.29
17764;BME280;22245;52.832;13.816;2022-07-18T13:24:12;102163.03;;;25.74;36.81
17764;BME280;22245;52.832;13.816;2022-07-18T13:27:36;102167.09;;;25.78;38.36
17764;BME280;22245;52.832;13.816;2022-07-18T13:30:58;102163.09;;;25.81;36.96
17764;BME280;22245;52.832;13.816;2022-07-18T13:34:23;102154.09;;;25.80;37.27
17764;BME280;22245;52.832;13.816;2022-07-18T13:37:45;102154.91;;;25.81;37.01
17764;BME280;22245;52.832;13.816;2022-07-18T13:41:08;102150.97;;;25.83;37.01
17764;BME280;22245;52.832;13.816;2022-07-18T13:44:30;102148.25;;;25.90;37.44
17764;BME280;22245;52.832;13.816;2022-07-18T13:47:51;102149.53;;;25.94;36.81
17764;BME280;22245;52.832;13.816;2022-07-18T13:51:15;102139.94;;;25.98;35.39
17764;BME280;22245;52.832;13.816;2022-07-18T13:54:37;102145.81;;;26.02;37.50
17764;BME280;22245;52.832;13.816;2022-07-18T13:57:59;102145.41;;;26.05;36.53
17764;BME280;22245;52.832;13.816;2022-07-18T14:01:26;102146.28;;;26.06;35.22
17764;BME280;22245;52.832;13.816;2022-07-18T14:04:48;102146.47;;;26.04;35.69
17764;BME280;22245;52.832;13.816;2022-07-18T14:08:31;102149.00;;;26.06;36.04
17764;BME280;22245;52.832;13.816;2022-07-18T14:11:53;102144.19;;;26.08;35.77
17764;BME280;22245;52.832;13.816;2022-07-18T14:15:16;102144.81;;;26.10;36.35
17764;BME280;22245;52.832;13.816;2022-07-18T14:18:38;102150.06;;;26.11;36.76
17764;BME280;22245;52.832;13.816;2022-07-18T14:22:00;102149.03;;;26.12;36.36
17764;BME280;22245;52.832;13.816;2022-07-18T14:25:23;102152.06;;;26.18;35.43
17764;BME280;22245;52.832;13.816;2022-07-18T14:28:44;102142.81;;;26.19;36.08
17764;BME280;22245;52.832;13.816;2022-07-18T14:32:07;102132.94;;;26.18;36.30
17764;BME280;22245;52.832;13.816;2022-07-18T14:35:29;102130.44;;;26.23;36.38
17764;BME280;22245;52.832;13.816;2022-07-18T14:38:51;102125.84;;;26.30;35.32
17764;BME280;22245;52.832;13.816;2022-07-18T14:42:14;102116.59;;;26.31;34.82
17764;BME280;22245;52.832;13.816;2022-07-18T14:45:36;102108.88;;;26.35;35.29
17764;BME280;22245;52.832;13.816;2022-07-18T14:49:18;102099.84;;;26.41;35.71
17764;BME280;22245;52.832;13.816;2022-07-18T14:52:40;102101.53;;;26.49;35.71
17764;BME280;22245;52.832;13.816;2022-07-18T14:56:04;102102.44;;;26.56;35.07
17764;BME280;22245;52.832;13.816;2022-07-18T14:59:27;102101.38;;;26.64;36.05
17764;BME280;22245;52.832;13.816;2022-07-18T15:02:49;102097.44;;;26.73;36.29
17764;BME280;22245;52.832;13.816;2022-07-18T15:06:11;102093.59;;;26.61;34.27
17764;BME280;22245;52.832;13.816;2022-07-18T15:09:33;102096.75;;;26.57;34.93
17764;BME280;22245;52.832;13.816;2022-07-18T15:12:56;102091.72;;;26.61;35.12
17764;BME280;22245;52.832;13.816;2022-07-18T15:16:19;102101.22;;;26.72;35.18
17764;BME280;22245;52.832;13.816;2022-07-18T15:19:41;102101.00;;;26.80;34.84
17764;BME280;22245;52.832;13.816;2022-07-18T15:23:03;102102.88;;;26.80;34.99
17764;BME280;22245;52.832;13.816;2022-07-18T15:26:26;102098.28;;;26.80;34.44
17764;BME280;22245;52.832;13.816;2022-07-18T15:29:48;102105.00;;;26.78;34.96
17764;BME280;22245;52.832;13.816;2022-07-18T15:33:11;102096.59;;;26.79;35.01
17764;BME280;22245;52.832;13.816;2022-07-18T15:36:33;102091.53;;;26.83;34.75
17764;BME280;22245;52.832;13.816;2022-07-18T15:39:55;102088.84;;;26.90;34.50
17764;BME280;22245;52.832;13.816;2022-07-18T15:43:17;102084.47;;;26.95;35.85
17764;BME280;22245;52.832;13.816;2022-07-18T15:46:39;102090.34;;;27.06;36.00
17764;BME280;22245;52.832;13.816;2022-07-18T15:50:02;102084.25;;;27.10;34.63
17764;BME280;22245;52.832;13.816;2022-07-18T15:53:24;102086.78;;;27.12;35.02
17764;BME280;22245;52.832;13.816;2022-07-18T15:56:46;102069.75;;;27.16;34.60
17764;BME280;22245;52.832;13.816;2022-07-18T16:00:09;102063.84;;;27.20;34.71
17764;BME280;22245;52.832;13.816;2022-07-18T16:03:34;102064.50;;;27.22;34.58
17764;BME280;22245;52.832;13.816;2022-07-18T16:06:57;102051.63;;;27.22;34.98
17764;BME280;22245;52.832;13.816;2022-07-18T16:10:19;102047.88;;;27.16;35.38
17764;BME280;22245;52.832;13.816;2022-07-18T16:13:41;102038.84;;;27.09;36.09
17764;BME280;22245;52.832;13.816;2022-07-18T16:17:03;102039.84;;;27.08;36.83
17764;BME280;22245;52.832;13.816;2022-07-18T16:20:25;102031.88;;;27.00;35.67
17764;BME280;22245;52.832;13.816;2022-07-18T16:23:48;102030.63;;;27.02;36.48
17764;BME280;22245;52.832;13.816;2022-07-18T16:27:15;102030.63;;;27.09;36.24
17764;BME280;22245;52.832;13.816;2022-07-18T16:30:39;102025.56;;;27.20;35.45
17764;BME280;22245;52.832;13.816;2022-07-18T16:34:00;102021.97;;;27.19;37.00
17764;BME280;22245;52.832;13.816;2022-07-18T16:37:22;102007.47;;;27.19;38.81
17764;BME280;22245;52.832;13.816;2022-07-18T16:40:46;102013.38;;;27.09;36.05
17764;BME280;22245;52.832;13.816;2022-07-18T16:44:08;102012.94;;;27.12;36.83
17764;BME280;22245;52.832;13.816;2022-07-18T16:47:30;102010.41;;;27.17;38.08
17764;BME280;22245;52.832;13.816;2022-07-18T16:50:53;102019.44;;;27.24;38.63
17764;BME280;22245;52.832;13.816;2022-07-18T16:54:15;102012.88;;;27.45;36.98
17764;BME280;22245;52.832;13.816;2022-07-18T16:57:39;102009.69;;;27.76;35.67
17764;BME280;22245;52.832;13.816;2022-07-18T17:01:03;102008.31;;;28.05;34.88
17764;BME280;22245;52.832;13.816;2022-07-18T17:04:25;102010.59;;;28.15;34.98
17764;BME280;22245;52.832;13.816;2022-07-18T17:07:47;102005.16;;;28.08;35.14
17764;BME280;22245;52.832;13.816;2022-07-18T17:11:09;101998.66;;;27.96;36.57
17764;BME280;22245;52.832;13.816;2022-07-18T17:14:34;101986.69;;;27.90;37.72
17764;BME280;22245;52.832;13.816;2022-07-18T17:17:56;101989.81;;;28.00;36.62
17764;BME280;22245;52.832;13.816;2022-07-18T17:21:21;101975.31;;;27.93;36.68
17764;BME280;22245;52.832;13.816;2022-07-18T17:24:43;101979.56;;;27.82;37.28
17764;BME280;22245;52.832;13.816;2022-07-18T17:28:06;101978.59;;;28.09;37.50
17764;BME280;22245;52.832;13.816;2022-07-18T17:31:30;101973.16;;;28.41;38.02
17764;BME280;22245;52.832;13.816;2022-07-18T17:34:53;101980.13;;;28.69;36.26